createdAt,value
2022-12-17T00:02:15.487Z,100.00
2022-12-17T00:05:00.500Z,100.00
2022-12-17T00:07:45.923Z,100.00
2022-12-17T00:10:31.291Z,100.00
2022-12-17T00:13:17.839Z,100.00
2022-12-17T00:16:09.723Z,100.00
2022-12-17T00:18:55.101Z,100.00
2022-12-17T00:21:50.231Z,100.00
2022-12-17T00:24:35.611Z,100.00
2022-12-17T00:27:22.440Z,100.00
2022-12-17T00:30:20.864Z,100.00
2022-12-17T00:33:06.020Z,100.00
2022-12-17T00:35:51.481Z,100.00
2022-12-17T00:38:37.861Z,100.00
2022-12-17T00:41:23.640Z,100.00
2022-12-17T00:44:08.944Z,100.00
2022-12-17T00:46:56.302Z,100.00
2022-12-17T00:49:41.434Z,100.00
2022-12-17T00:52:26.825Z,100.00
2022-12-17T00:55:12.133Z,100.00
2022-12-17T00:57:57.377Z,100.00
2022-12-17T01:00:42.696Z,100.00
2022-12-17T01:03:27.435Z,100.00
2022-12-17T01:06:18.147Z,100.00
2022-12-17T01:09:03.348Z,100.00
2022-12-17T01:11:50.098Z,100.00
2022-12-17T01:14:35.492Z,100.00
2022-12-17T01:17:20.742Z,100.00
2022-12-17T01:20:07.426Z,100.00
2022-12-17T01:23:01.199Z,100.00
2022-12-17T01:25:46.576Z,99.84
2022-12-17T01:28:31.580Z,99.76
2022-12-17T01:31:16.952Z,99.44
2022-12-17T01:34:02.216Z,100.00
2022-12-17T01:37:03.307Z,99.69
2022-12-17T01:39:48.559Z,99.38
2022-12-17T01:42:33.473Z,99.17
2022-12-17T01:45:18.790Z,98.70
2022-12-17T01:48:06.124Z,97.66
2022-12-17T01:50:54.852Z,98.41
2022-12-17T01:53:44.027Z,98.00
2022-12-17T01:56:29.866Z,97.67
2022-12-17T01:59:15.565Z,97.71
2022-12-17T02:02:00.886Z,97.42
2022-12-17T02:04:46.012Z,98.03
2022-12-17T02:07:39.473Z,98.86
2022-12-17T02:10:36.592Z,99.36
2022-12-17T02:13:26.587Z,99.84
2022-12-17T02:16:27.903Z,100.00
2022-12-17T02:19:17.309Z,100.00
2022-12-17T02:22:03.843Z,100.00
2022-12-17T02:24:52.644Z,100.00
2022-12-17T02:27:42.231Z,100.00
2022-12-17T02:30:28.540Z,100.00
2022-12-17T02:33:13.770Z,100.00
2022-12-17T02:36:01.478Z,100.00
2022-12-17T02:38:48.203Z,100.00
2022-12-17T02:41:36.233Z,100.00
2022-12-17T02:44:23.481Z,100.00
2022-12-17T02:47:09.290Z,100.00
2022-12-17T02:49:54.628Z,100.00
2022-12-17T02:52:39.961Z,100.00
2022-12-17T02:55:26.096Z,100.00
2022-12-17T02:58:11.414Z,100.00
2022-12-17T03:00:57.949Z,100.00
2022-12-17T03:03:48.727Z,100.00
2022-12-17T03:06:35.276Z,100.00
2022-12-17T03:09:20.520Z,100.00
2022-12-17T03:12:05.925Z,100.00
2022-12-17T03:14:50.895Z,100.00
2022-12-17T03:17:37.364Z,100.00
2022-12-17T03:20:28.625Z,100.00
2022-12-17T03:23:20.574Z,100.00
2022-12-17T03:26:05.756Z,100.00
2022-12-17T03:28:51.081Z,100.00
2022-12-17T03:31:36.597Z,100.00
2022-12-17T03:34:23.163Z,100.00
2022-12-17T03:37:08.433Z,100.00
2022-12-17T03:39:53.770Z,100.00
2022-12-17T03:42:38.969Z,100.00
2022-12-17T03:45:24.760Z,100.00
2022-12-17T03:48:10.079Z,100.00
2022-12-17T03:50:56.540Z,100.00
2022-12-17T03:53:41.920Z,100.00
2022-12-17T03:56:27.134Z,100.00
2022-12-17T03:59:12.277Z,100.00
2022-12-17T04:01:57.518Z,100.00
2022-12-17T04:04:42.727Z,100.00
2022-12-17T04:07:29.324Z,100.00
2022-12-17T04:10:14.532Z,100.00
2022-12-17T04:13:00.023Z,100.00
2022-12-17T04:15:45.346Z,100.00
2022-12-17T04:18:30.708Z,100.00
2022-12-17T04:21:16.029Z,100.00
2022-12-17T04:24:02.472Z,100.00
2022-12-17T04:26:47.922Z,100.00
2022-12-17T04:29:33.178Z,100.00
2022-12-17T04:32:18.507Z,100.00
2022-12-17T04:35:03.878Z,100.00
2022-12-17T04:37:49.139Z,100.00
2022-12-17T04:40:35.664Z,100.00
2022-12-17T04:43:25.005Z,100.00
2022-12-17T04:46:10.411Z,100.00
2022-12-17T04:48:55.382Z,100.00
2022-12-17T04:51:40.543Z,100.00
2022-12-17T04:54:25.932Z,100.00
2022-12-17T04:57:12.532Z,100.00
2022-12-17T04:59:57.803Z,100.00
2022-12-17T05:02:43.310Z,100.00
2022-12-17T05:05:29.056Z,100.00
2022-12-17T05:08:14.286Z,100.00
2022-12-17T05:10:59.723Z,100.00
2022-12-17T05:13:46.751Z,100.00
2022-12-17T05:16:32.007Z,100.00
2022-12-17T05:19:17.438Z,100.00
2022-12-17T05:22:02.751Z,100.00
2022-12-17T05:24:48.192Z,100.00
2022-12-17T05:27:33.599Z,100.00
2022-12-17T05:30:20.011Z,100.00
2022-12-17T05:33:05.143Z,100.00
2022-12-17T05:35:49.656Z,100.00
2022-12-17T05:38:34.919Z,100.00
2022-12-17T05:41:20.211Z,100.00
2022-12-17T05:44:05.514Z,100.00
2022-12-17T05:46:51.962Z,100.00
2022-12-17T05:49:37.337Z,100.00
2022-12-17T05:52:19.053Z,100.00
2022-12-17T05:55:04.596Z,100.00
2022-12-17T05:57:55.978Z,100.00
2022-12-17T06:00:41.489Z,100.00
2022-12-17T06:03:28.709Z,100.00
2022-12-17T06:06:14.488Z,100.00
2022-12-17T06:08:59.811Z,100.00
2022-12-17T06:11:44.764Z,100.00
2022-12-17T06:14:30.155Z,100.00
2022-12-17T06:17:15.455Z,100.00
2022-12-17T06:20:02.153Z,100.00
2022-12-17T06:22:47.269Z,100.00
2022-12-17T06:25:32.561Z,100.00
2022-12-17T06:28:18.411Z,100.00
2022-12-17T06:31:09.219Z,100.00
2022-12-17T06:33:56.485Z,100.00
2022-12-17T06:36:43.216Z,100.00
2022-12-17T06:39:31.116Z,100.00
2022-12-17T06:42:16.381Z,100.00
2022-12-17T06:45:01.796Z,100.00
2022-12-17T06:47:58.734Z,100.00
2022-12-17T06:50:44.092Z,100.00
2022-12-17T06:53:30.642Z,100.00
2022-12-17T06:56:16.326Z,100.00
2022-12-17T06:59:01.589Z,100.00
2022-12-17T07:01:47.079Z,100.00
2022-12-17T07:04:32.571Z,100.00
2022-12-17T07:07:19.560Z,99.99
2022-12-17T07:10:12.140Z,100.00
2022-12-17T07:13:13.896Z,100.00
2022-12-17T07:15:59.048Z,100.00
2022-12-17T07:18:45.472Z,100.00
2022-12-17T07:21:30.934Z,100.00
2022-12-17T07:24:18.532Z,100.00
2022-12-17T07:27:05.389Z,100.00
2022-12-17T07:29:50.792Z,100.00
2022-12-17T07:32:36.543Z,100.00
2022-12-17T07:35:36.526Z,100.00
2022-12-17T07:38:23.201Z,100.00
2022-12-17T07:41:08.637Z,100.00
2022-12-17T07:43:55.348Z,100.00
2022-12-17T07:46:40.713Z,100.00
2022-12-17T07:49:26.416Z,100.00
2022-12-17T07:52:12.038Z,100.00
2022-12-17T07:54:57.452Z,100.00
2022-12-17T07:57:43.120Z,100.00
2022-12-17T08:00:31.306Z,100.00
2022-12-17T08:03:16.638Z,100.00
2022-12-17T08:06:02.163Z,100.00
2022-12-17T08:08:47.511Z,100.00
2022-12-17T08:11:33.138Z,100.00
2022-12-17T08:14:18.305Z,100.00
2022-12-17T08:17:04.981Z,100.00
2022-12-17T08:19:50.270Z,100.00
2022-12-17T08:22:35.332Z,100.00
2022-12-17T08:25:20.783Z,100.00
2022-12-17T08:28:11.055Z,100.00
2022-12-17T08:31:01.028Z,100.00
2022-12-17T08:33:47.633Z,100.00
2022-12-17T08:36:33.027Z,100.00
2022-12-17T08:39:18.428Z,100.00
2022-12-17T08:42:09.505Z,100.00
2022-12-17T08:50:13.046Z,100.00
2022-12-17T08:52:57.521Z,100.00
2022-12-17T08:55:42.776Z,100.00
2022-12-17T08:58:28.195Z,100.00
2022-12-17T09:01:16.525Z,100.00
2022-12-17T09:04:01.633Z,100.00
2022-12-17T09:06:48.710Z,100.00
2022-12-17T09:09:34.089Z,100.00
2022-12-17T09:12:19.373Z,100.00
2022-12-17T09:15:04.838Z,100.00
2022-12-17T09:17:50.190Z,100.00
2022-12-17T09:20:35.719Z,100.00
2022-12-17T09:23:22.625Z,100.00
2022-12-17T09:26:11.923Z,100.00
2022-12-17T09:28:57.283Z,100.00
2022-12-17T09:31:42.446Z,100.00
2022-12-17T09:34:27.877Z,100.00
2022-12-17T09:37:13.577Z,100.00
2022-12-17T09:39:59.934Z,100.00
2022-12-17T09:42:51.788Z,100.00
2022-12-17T09:45:41.720Z,100.00
2022-12-17T09:48:34.663Z,100.00
2022-12-17T09:51:19.938Z,100.00
2022-12-17T09:54:17.777Z,100.00
2022-12-17T09:57:04.105Z,100.00
2022-12-17T09:59:53.675Z,100.00
2022-12-17T10:02:44.702Z,100.00
2022-12-17T10:05:33.063Z,100.00
2022-12-17T10:08:18.579Z,100.00
2022-12-17T10:11:04.918Z,100.00
2022-12-17T10:13:51.580Z,100.00
2022-12-17T10:16:39.867Z,100.00
2022-12-17T10:19:25.172Z,100.00
2022-12-17T10:22:10.621Z,100.00
2022-12-17T10:25:03.015Z,100.00
2022-12-17T10:27:48.274Z,100.00
2022-12-17T10:30:36.066Z,100.00
2022-12-17T10:33:24.528Z,100.00
2022-12-17T10:36:09.666Z,100.00
2022-12-17T10:38:55.521Z,100.00
2022-12-17T10:41:42.197Z,100.00
2022-12-17T10:44:41.198Z,100.00
2022-12-17T10:47:31.986Z,100.00
2022-12-17T10:50:18.399Z,100.00
2022-12-17T10:53:04.185Z,100.00
2022-12-17T10:55:50.608Z,100.00
2022-12-17T10:58:40.086Z,100.00
2022-12-17T11:01:26.579Z,100.00
2022-12-17T11:04:14.240Z,100.00
2022-12-17T11:07:00.205Z,100.00
2022-12-17T11:10:21.148Z,100.00
2022-12-17T11:13:13.225Z,100.00
2022-12-17T11:16:01.744Z,100.00
2022-12-17T11:18:49.722Z,100.00
2022-12-17T11:21:39.839Z,100.00
2022-12-17T11:24:29.986Z,100.00
2022-12-17T11:27:15.426Z,100.00
2022-12-17T11:30:00.441Z,100.00
2022-12-17T11:32:59.419Z,100.00
2022-12-17T11:35:56.452Z,100.00
2022-12-17T11:38:49.859Z,100.00
2022-12-17T11:41:39.906Z,100.00
2022-12-17T11:44:35.547Z,100.00
2022-12-17T11:47:29.034Z,100.00
2022-12-17T11:50:21.468Z,100.00
2022-12-17T11:53:11.344Z,100.00
2022-12-17T11:56:05.570Z,100.00
2022-12-17T11:58:54.870Z,100.00
2022-12-17T12:01:45.421Z,100.00
2022-12-17T12:04:40.012Z,100.00
2022-12-17T12:07:32.133Z,100.00
2022-12-17T12:10:22.097Z,100.00
2022-12-17T12:13:17.254Z,100.00
2022-12-17T12:16:12.901Z,100.00
2022-12-17T12:19:02.951Z,100.00
2022-12-17T12:21:59.439Z,100.00
2022-12-17T12:24:58.781Z,100.00
2022-12-17T12:27:49.119Z,100.00
2022-12-17T12:30:39.417Z,100.00
2022-12-17T12:33:36.372Z,100.00
2022-12-17T12:36:25.140Z,100.00
2022-12-17T12:39:12.589Z,100.00
2022-12-17T12:42:03.599Z,100.00
2022-12-17T12:44:54.020Z,100.00
2022-12-17T12:47:43.935Z,100.00
2022-12-17T12:50:36.525Z,100.00
2022-12-17T12:53:21.652Z,100.00
2022-12-17T12:56:07.034Z,100.00
2022-12-17T12:58:53.345Z,100.00
2022-12-17T13:01:39.413Z,100.00
2022-12-17T13:04:39.943Z,100.00
2022-12-17T13:07:24.147Z,100.00
2022-12-17T13:09:53.500Z,100.00
2022-12-17T13:12:29.416Z,100.00
2022-12-17T13:15:03.321Z,100.00
2022-12-17T13:17:34.567Z,100.00
2022-12-17T13:20:22.720Z,100.00
2022-12-17T13:22:52.526Z,100.00
2022-12-17T13:25:21.728Z,100.00
2022-12-17T13:27:49.801Z,100.00
2022-12-17T13:30:31.897Z,100.00
2022-12-17T13:33:09.717Z,100.00
2022-12-17T13:35:42.120Z,100.00
2022-12-17T13:38:16.438Z,100.00
2022-12-17T13:40:46.295Z,100.00
2022-12-17T13:43:17.858Z,100.00
2022-12-17T13:45:45.748Z,100.00
2022-12-17T13:48:21.981Z,100.00
2022-12-17T13:50:56.874Z,100.00
2022-12-17T13:53:24.483Z,100.00
2022-12-17T13:55:53.302Z,100.00
2022-12-17T13:58:26.830Z,100.00
2022-12-17T14:01:05.582Z,100.00
2022-12-17T14:03:57.122Z,100.00
2022-12-17T14:06:22.984Z,100.00
2022-12-17T14:08:51.796Z,100.00
2022-12-17T14:11:37.309Z,100.00
2022-12-17T14:14:05.200Z,100.00
2022-12-17T14:16:32.922Z,100.00
2022-12-17T14:19:01.017Z,100.00
2022-12-17T14:21:30.638Z,100.00
2022-12-17T14:23:58.764Z,100.00
2022-12-17T14:26:26.386Z,100.00
2022-12-17T14:28:55.235Z,100.00
2022-12-17T14:31:27.505Z,100.00
2022-12-17T14:34:07.118Z,100.00
2022-12-17T14:36:37.765Z,100.00
2022-12-17T14:39:11.174Z,100.00
2022-12-17T14:41:57.205Z,100.00
2022-12-17T14:44:27.680Z,100.00
2022-12-17T14:47:08.544Z,100.00
2022-12-17T14:49:36.319Z,100.00
2022-12-17T14:52:14.786Z,100.00
2022-12-17T14:54:47.226Z,100.00
2022-12-17T14:57:21.778Z,100.00
2022-12-17T14:59:50.380Z,100.00
2022-12-17T15:02:23.827Z,100.00
2022-12-17T15:04:52.904Z,100.00
2022-12-17T15:07:25.377Z,100.00
2022-12-17T15:09:53.876Z,100.00
2022-12-17T15:12:22.000Z,100.00
2022-12-17T15:14:49.772Z,100.00
2022-12-17T15:17:18.408Z,100.00
2022-12-17T15:19:49.086Z,100.00
2022-12-17T15:22:19.210Z,100.00
2022-12-17T15:24:48.226Z,100.00
2022-12-17T15:27:17.180Z,100.00
2022-12-17T15:29:45.935Z,100.00
2022-12-17T15:32:19.297Z,100.00
2022-12-17T15:34:47.319Z,100.00
2022-12-17T15:37:17.820Z,100.00
2022-12-17T15:39:50.094Z,100.00
2022-12-17T15:42:35.609Z,100.00
2022-12-17T15:45:03.246Z,100.00
2022-12-17T15:47:30.878Z,100.00
2022-12-17T15:49:58.748Z,100.00
2022-12-17T15:52:26.692Z,100.00
2022-12-17T15:54:56.017Z,100.00
2022-12-17T15:57:23.721Z,100.00
2022-12-17T15:59:52.943Z,100.00
2022-12-17T16:02:21.084Z,100.00
2022-12-17T16:04:50.854Z,100.00
2022-12-17T16:07:20.767Z,100.00
2022-12-17T16:12:20.152Z,100.00
2022-12-17T16:17:16.817Z,100.00
2022-12-17T16:19:44.674Z,100.00
2022-12-17T16:22:12.495Z,100.00
2022-12-17T16:24:40.897Z,100.00
2022-12-17T16:27:08.865Z,100.00
2022-12-17T16:29:36.753Z,100.00
2022-12-17T16:32:04.680Z,100.00
2022-12-17T16:34:33.725Z,100.00
2022-12-17T16:37:01.589Z,100.00
2022-12-17T16:39:29.777Z,100.00
2022-12-17T16:41:57.514Z,100.00
2022-12-17T16:44:25.853Z,100.00
2022-12-17T16:46:53.520Z,100.00
2022-12-17T16:49:22.841Z,100.00
2022-12-17T16:51:57.783Z,100.00
2022-12-17T16:54:27.802Z,100.00
2022-12-17T16:56:56.086Z,100.00
2022-12-17T16:59:24.358Z,100.00
2022-12-17T17:01:53.171Z,100.00
2022-12-17T17:04:23.161Z,100.00
2022-12-17T17:06:52.240Z,100.00
2022-12-17T17:09:22.374Z,100.00
2022-12-17T17:11:51.968Z,100.00
2022-12-17T17:14:20.252Z,100.00
2022-12-17T17:16:48.008Z,100.00
2022-12-17T17:19:15.962Z,100.00
2022-12-17T17:21:49.738Z,100.00
2022-12-17T17:24:21.766Z,100.00
2022-12-17T17:26:52.354Z,100.00
2022-12-17T17:29:20.221Z,100.00
2022-12-17T17:34:38.976Z,100.00
2022-12-17T17:37:06.768Z,100.00
2022-12-17T17:39:34.754Z,100.00
2022-12-17T17:42:04.193Z,100.00
2022-12-17T17:44:31.953Z,100.00
2022-12-17T17:46:59.694Z,100.00
2022-12-17T17:49:27.464Z,100.00
2022-12-17T17:52:11.406Z,100.00
2022-12-17T17:54:40.912Z,100.00
2022-12-17T17:57:10.682Z,100.00
2022-12-17T17:59:39.504Z,100.00
2022-12-17T18:02:08.851Z,100.00
2022-12-17T18:04:36.726Z,100.00
2022-12-17T18:09:51.985Z,100.00
2022-12-17T18:12:38.218Z,100.00
2022-12-17T18:15:16.370Z,100.00
2022-12-17T18:17:44.998Z,100.00
2022-12-17T18:20:13.236Z,100.00
2022-12-17T18:22:40.868Z,100.00
2022-12-17T18:25:11.619Z,100.00
2022-12-17T18:27:40.920Z,100.00
2022-12-17T18:30:09.928Z,100.00
2022-12-17T18:32:37.600Z,100.00
2022-12-17T18:35:05.798Z,100.00
2022-12-17T18:37:33.394Z,100.00
2022-12-17T18:40:01.042Z,100.00
2022-12-17T18:42:46.380Z,100.00
2022-12-17T18:45:15.832Z,100.00
2022-12-17T18:47:44.520Z,100.00
2022-12-17T18:50:13.000Z,100.00
2022-12-17T18:52:40.661Z,100.00
2022-12-17T18:55:08.599Z,100.00
2022-12-17T18:57:36.976Z,100.00
2022-12-17T19:00:05.994Z,100.00
2022-12-17T19:02:35.066Z,100.00
2022-12-17T19:05:02.974Z,100.00
2022-12-17T19:07:30.580Z,100.00
2022-12-17T19:09:58.272Z,100.00
2022-12-17T19:12:25.926Z,100.00
2022-12-17T19:14:53.583Z,100.00
2022-12-17T19:17:21.174Z,100.00
2022-12-17T19:19:50.107Z,100.00
2022-12-17T19:22:20.753Z,100.00
2022-12-17T19:24:48.363Z,100.00
2022-12-17T19:27:15.983Z,100.00
2022-12-17T19:29:48.996Z,100.00
2022-12-17T19:32:17.357Z,100.00
2022-12-17T19:34:44.907Z,100.00
2022-12-17T19:37:13.942Z,100.00
2022-12-17T19:39:41.575Z,100.00
2022-12-17T19:42:24.299Z,100.00
2022-12-17T19:44:52.307Z,100.00
2022-12-17T19:47:20.051Z,100.00
2022-12-17T19:49:47.931Z,100.00
2022-12-17T19:52:16.938Z,100.00
2022-12-17T19:54:44.799Z,100.00
2022-12-17T19:57:12.530Z,100.00
2022-12-17T19:59:40.243Z,100.00
2022-12-17T20:02:08.175Z,100.00
2022-12-17T20:04:38.608Z,100.00
2022-12-17T20:07:06.371Z,100.00
2022-12-17T20:09:35.384Z,100.00
2022-12-17T20:12:03.018Z,100.00
2022-12-17T20:14:31.711Z,100.00
2022-12-17T20:17:01.337Z,100.00
2022-12-17T20:19:31.315Z,100.00
2022-12-17T20:21:59.950Z,100.00
2022-12-17T20:24:31.514Z,100.00
2022-12-17T20:27:01.399Z,100.00
2022-12-17T20:29:29.433Z,100.00
2022-12-17T20:31:57.191Z,100.00
2022-12-17T20:34:25.976Z,100.00
2022-12-17T20:36:54.049Z,100.00
2022-12-17T20:39:27.048Z,100.00
2022-12-17T20:41:56.302Z,100.00
2022-12-17T20:44:25.367Z,100.00
2022-12-17T20:46:53.238Z,100.00
2022-12-17T20:49:20.948Z,100.00
2022-12-17T20:51:48.647Z,100.00
2022-12-17T20:54:16.366Z,100.00
2022-12-17T20:56:44.020Z,100.00
2022-12-17T20:59:15.902Z,100.00
2022-12-17T21:01:45.630Z,100.00
2022-12-17T21:04:14.170Z,100.00
2022-12-17T21:06:43.520Z,100.00
2022-12-17T21:09:12.226Z,100.00
2022-12-17T21:11:41.678Z,100.00
2022-12-17T21:14:13.510Z,100.00
2022-12-17T21:16:41.365Z,100.00
2022-12-17T21:19:26.652Z,100.00
2022-12-17T21:21:54.575Z,100.00
2022-12-17T21:24:22.496Z,100.00
2022-12-17T21:26:50.388Z,100.00
2022-12-17T21:29:18.360Z,100.00
2022-12-17T21:31:46.996Z,100.00
2022-12-17T21:34:17.739Z,100.00
2022-12-17T21:36:45.535Z,100.00
2022-12-17T21:39:14.657Z,100.00
2022-12-17T21:42:03.916Z,100.00
2022-12-17T21:44:32.265Z,100.00
2022-12-17T21:46:59.967Z,100.00
2022-12-17T21:49:28.958Z,100.00
2022-12-17T21:51:59.148Z,100.00
2022-12-17T21:54:26.986Z,100.00
2022-12-17T21:56:54.687Z,100.00
2022-12-17T21:59:22.446Z,100.00
2022-12-17T22:01:50.272Z,100.00
2022-12-17T22:04:18.077Z,100.00
2022-12-17T22:06:53.249Z,100.00
2022-12-17T22:09:55.569Z,100.00
2022-12-17T22:12:37.677Z,100.00
2022-12-17T22:15:08.248Z,100.00
2022-12-17T22:17:36.447Z,100.00
2022-12-17T22:20:04.340Z,100.00
2022-12-17T22:22:33.480Z,100.00
2022-12-17T22:25:07.861Z,100.00
2022-12-17T22:27:37.615Z,100.00
2022-12-17T22:30:23.465Z,100.00
2022-12-17T22:33:08.046Z,100.00
2022-12-17T22:37:41.679Z,100.00
2022-12-17T22:43:16.512Z,100.00
2022-12-17T22:44:46.141Z,100.00
2022-12-17T22:44:51.706Z,100.00
2022-12-17T22:47:20.311Z,100.00
2022-12-17T22:49:47.914Z,100.00
2022-12-17T22:52:15.696Z,100.00
2022-12-17T22:54:47.251Z,100.00
2022-12-17T22:57:35.868Z,100.00
2022-12-17T23:00:02.852Z,100.00
2022-12-17T23:02:30.504Z,100.00
2022-12-17T23:04:58.104Z,100.00
2022-12-17T23:07:31.511Z,100.00
2022-12-17T23:10:01.366Z,100.00
2022-12-17T23:12:46.408Z,100.00
2022-12-17T23:15:14.014Z,100.00
2022-12-17T23:17:41.923Z,100.00
2022-12-17T23:20:11.196Z,100.00
2022-12-17T23:22:39.386Z,100.00
2022-12-17T23:25:09.676Z,100.00
2022-12-17T23:27:37.689Z,100.00
2022-12-17T23:30:10.301Z,100.00
2022-12-17T23:32:38.299Z,100.00
2022-12-17T23:35:07.508Z,100.00
2022-12-17T23:37:39.734Z,100.00
2022-12-17T23:40:13.601Z,100.00
2022-12-17T23:42:41.460Z,100.00
2022-12-17T23:45:11.400Z,100.00
2022-12-17T23:47:39.564Z,100.00
2022-12-17T23:50:09.108Z,100.00
2022-12-17T23:52:36.789Z,100.00
2022-12-17T23:55:04.833Z,100.00
2022-12-17T23:57:33.950Z,100.00
